createdAt,value
2022-11-04T17:58:32.859Z,1.36
2022-11-04T18:01:03.372Z,1.13
2022-11-04T18:03:32.134Z,1.22
2022-11-04T18:05:58.584Z,1.15
2022-11-04T18:08:24.979Z,1.04
2022-11-04T18:10:51.281Z,1.10
2022-11-04T18:13:17.644Z,1.12
2022-11-04T18:15:43.960Z,1.51
2022-11-04T18:18:10.310Z,1.43
2022-11-04T18:20:36.629Z,1.69
2022-11-04T18:23:02.931Z,1.67
2022-11-04T18:25:29.492Z,1.61
2022-11-04T18:27:55.810Z,1.79
2022-11-04T18:30:22.107Z,1.79
2022-11-04T18:32:48.412Z,1.43
2022-11-04T18:35:14.819Z,1.40
2022-11-04T18:37:46.691Z,1.40
2022-11-04T18:40:13.486Z,1.60
2022-11-04T18:42:39.787Z,1.60
2022-11-04T18:45:06.091Z,1.73
2022-11-04T18:47:32.407Z,1.56
2022-11-04T18:49:58.752Z,1.85
2022-11-04T18:52:25.068Z,1.74
2022-11-04T18:54:51.386Z,1.76
2022-11-04T18:57:17.710Z,1.50
2022-11-04T18:59:44.021Z,1.88
2022-11-04T19:02:10.453Z,1.67
2022-11-04T19:04:36.882Z,2.03
2022-11-04T19:07:03.189Z,2.59
2022-11-04T19:09:45.983Z,2.88
2022-11-04T19:12:13.292Z,3.39
2022-11-04T19:14:39.603Z,2.83
2022-11-04T19:17:05.906Z,3.17
2022-11-04T19:19:32.288Z,2.84
2022-11-04T19:21:58.631Z,3.05
2022-11-04T19:24:24.945Z,2.98
2022-11-04T19:26:51.296Z,2.73
2022-11-04T19:29:17.627Z,2.97
2022-11-04T19:31:43.932Z,2.57
2022-11-04T19:34:10.238Z,2.57
2022-11-04T19:36:36.576Z,2.60
2022-11-04T19:39:02.883Z,2.38
2022-11-04T19:41:29.247Z,2.30
2022-11-04T19:43:55.557Z,2.51
2022-11-04T19:46:21.864Z,2.33
2022-11-04T19:48:48.174Z,2.39
2022-11-04T19:51:14.489Z,2.32
2022-11-04T19:53:40.790Z,2.15
2022-11-04T19:56:07.264Z,2.03
2022-11-04T19:58:33.655Z,1.93
2022-11-04T20:01:00.024Z,2.03
2022-11-04T20:03:26.536Z,2.07
2022-11-04T20:05:52.856Z,2.04
2022-11-04T20:08:19.167Z,1.83
2022-11-04T20:10:45.486Z,1.64
2022-11-04T20:13:11.785Z,1.67
2022-11-04T20:15:38.100Z,1.67
2022-11-04T20:18:04.446Z,1.61
2022-11-04T20:20:30.763Z,1.77
2022-11-04T20:22:57.076Z,1.80
2022-11-04T20:25:23.395Z,1.70
2022-11-04T20:27:49.703Z,1.50
2022-11-04T20:30:16.026Z,1.47
2022-11-04T20:32:42.320Z,1.54
2022-11-04T20:35:08.635Z,1.76
2022-11-04T20:37:34.933Z,1.62
2022-11-04T20:40:01.283Z,1.79
2022-11-04T20:42:27.663Z,1.61
2022-11-04T20:44:53.990Z,1.48
2022-11-04T20:47:20.340Z,1.59
2022-11-04T20:49:46.694Z,1.65
2022-11-04T20:52:13.030Z,1.51
2022-11-04T20:54:39.395Z,1.59
2022-11-04T20:57:05.705Z,1.67
2022-11-04T20:59:32.013Z,1.79
2022-11-04T21:01:58.370Z,1.70
2022-11-04T21:04:24.757Z,1.54
2022-11-04T21:06:51.112Z,1.78
2022-11-04T21:09:17.448Z,1.61
2022-11-04T21:11:43.745Z,1.68
2022-11-04T21:14:10.072Z,1.73
2022-11-04T21:16:36.376Z,1.48
2022-11-04T21:19:02.677Z,1.50
2022-11-04T21:21:29.068Z,1.57
2022-11-04T21:23:55.413Z,1.67
2022-11-04T21:26:21.722Z,1.41
2022-11-04T21:28:48.024Z,1.50
2022-11-04T21:31:14.329Z,1.59
2022-11-04T21:33:40.619Z,1.54
2022-11-04T21:36:06.913Z,1.63
2022-11-04T21:38:33.219Z,1.58
2022-11-04T21:40:59.555Z,1.64
2022-11-04T21:43:25.864Z,1.54
2022-11-04T21:45:52.204Z,1.67
2022-11-04T21:48:18.509Z,1.58
2022-11-04T21:50:44.826Z,1.67
2022-11-04T21:53:11.143Z,1.41
2022-11-04T21:55:37.439Z,1.50
2022-11-04T21:58:03.759Z,1.37
2022-11-04T22:00:30.079Z,1.76
2022-11-04T22:02:56.536Z,1.45
2022-11-04T22:05:22.947Z,1.45
2022-11-04T22:07:49.257Z,1.56
2022-11-04T22:10:15.559Z,1.52
2022-11-04T22:12:43.811Z,1.37
2022-11-04T22:15:13.374Z,1.31
2022-11-04T22:17:39.670Z,1.43
2022-11-04T22:20:05.986Z,1.45
